createdAt,value
2023-04-28T00:00:47.073Z,3.4
2023-04-28T00:03:49.130Z,3.6
2023-04-28T00:06:50.991Z,3.7
2023-04-28T00:09:53.026Z,3.7
2023-04-28T00:12:55.008Z,3.4
2023-04-28T00:15:57.019Z,3.8
2023-04-28T00:18:58.956Z,4
2023-04-28T00:22:00.911Z,3.6
2023-04-28T00:25:02.882Z,3.6
2023-04-28T00:28:04.838Z,3
2023-04-28T00:31:06.788Z,3.4
2023-04-28T00:34:08.760Z,3.8
2023-04-28T00:37:10.720Z,2.9
2023-04-28T00:40:12.706Z,3.6
2023-04-28T00:43:14.665Z,3.7
2023-04-28T00:46:16.625Z,3.8
2023-04-28T00:49:18.554Z,3.4
2023-04-28T00:52:20.522Z,3.6
2023-04-28T00:55:22.501Z,3.4
2023-04-28T00:58:24.449Z,3.9
2023-04-28T01:01:26.465Z,3.9
2023-04-28T01:04:28.604Z,3.1
2023-04-28T01:07:30.399Z,3.2
2023-04-28T01:10:32.371Z,3.8
2023-04-28T01:13:34.326Z,3
2023-04-28T01:16:36.305Z,3.3
2023-04-28T01:19:38.465Z,3.3
2023-04-28T01:22:40.202Z,3.1
2023-04-28T01:25:42.174Z,2.9
2023-04-28T01:28:44.152Z,3.2
2023-04-28T01:31:46.115Z,3.5
2023-04-28T01:34:48.086Z,3.8
2023-04-28T01:37:50.105Z,4.4
2023-04-28T01:40:52.035Z,3.9
2023-04-28T01:43:53.995Z,3.9
2023-04-28T01:46:55.947Z,3.8
2023-04-28T01:49:57.934Z,3.8
2023-04-28T01:52:59.862Z,4
2023-04-28T01:56:01.880Z,3.3
2023-04-28T01:59:04.002Z,4.1
2023-04-28T02:02:05.785Z,4.4
2023-04-28T02:05:07.745Z,4.2
2023-04-28T02:08:09.700Z,4.1
2023-04-28T02:11:11.670Z,3.8
2023-04-28T02:14:13.741Z,4.4
2023-04-28T02:17:15.616Z,5.1
2023-04-28T02:20:17.612Z,4.4
2023-04-28T02:23:19.588Z,5.8
2023-04-28T02:26:21.539Z,5.1
2023-04-28T02:29:23.663Z,5.1
2023-04-28T02:32:25.658Z,4.9
2023-04-28T02:35:27.600Z,4.7
2023-04-28T02:38:29.569Z,6
2023-04-28T02:41:31.523Z,6.2
2023-04-28T02:44:33.488Z,6.4
2023-04-28T02:47:35.493Z,6.2
2023-04-28T02:50:37.435Z,5.2
2023-04-28T02:53:39.376Z,4.5
2023-04-28T02:56:41.346Z,5.5
2023-04-28T02:59:43.294Z,5.1
2023-04-28T03:02:45.374Z,5.8
2023-04-28T03:05:47.243Z,6.6
2023-04-28T03:08:49.201Z,6.4
2023-04-28T03:11:51.165Z,5.4
2023-04-28T03:14:53.147Z,5.4
2023-04-28T03:17:55.159Z,5.5
2023-04-28T03:20:57.090Z,5.2
2023-04-28T03:23:59.068Z,5
2023-04-28T03:27:01.042Z,5.4
2023-04-28T03:30:03.003Z,6.2
2023-04-28T03:33:04.980Z,5.8
2023-04-28T03:36:06.910Z,5.3
2023-04-28T03:39:08.878Z,6.1
2023-04-28T03:42:10.848Z,5.3
2023-04-28T03:45:12.815Z,6.7
2023-04-28T03:48:14.817Z,5.8
2023-04-28T03:51:16.737Z,6.3
2023-04-28T03:54:18.759Z,4.9
2023-04-28T03:57:20.668Z,5.6
2023-04-28T04:00:22.636Z,5.7
2023-04-28T04:03:24.766Z,5.1
2023-04-28T04:06:26.570Z,3.8
2023-04-28T04:09:28.570Z,4.3
2023-04-28T04:12:30.561Z,4.1
2023-04-28T04:15:32.622Z,5.3
2023-04-28T04:18:34.521Z,4.2
2023-04-28T04:21:36.550Z,4.5
2023-04-28T04:24:38.530Z,5.2
2023-04-28T04:27:40.493Z,4.2
2023-04-28T04:30:42.464Z,4.3
2023-04-28T04:33:44.415Z,3.9
2023-04-28T04:36:46.386Z,4.9
2023-04-28T04:39:48.352Z,4.8
2023-04-28T04:42:50.335Z,4.8
2023-04-28T04:45:52.295Z,5.3
2023-04-28T04:48:54.365Z,5.2
2023-04-28T04:51:56.245Z,4.2
2023-04-28T04:54:58.190Z,4.4
2023-04-28T04:58:00.140Z,4.6
2023-04-28T05:01:02.098Z,5.7
2023-04-28T05:04:04.349Z,4.5
2023-04-28T05:07:06.019Z,5.1
2023-04-28T05:10:07.992Z,6.3
2023-04-28T05:13:10.025Z,7.6
2023-04-28T05:16:12.022Z,7.3
2023-04-28T05:19:13.954Z,7.7
2023-04-28T05:22:15.916Z,8.4
2023-04-28T05:25:17.884Z,8.2
2023-04-28T05:28:21.380Z,7.7
2023-04-28T05:31:21.831Z,7.7
2023-04-28T05:34:23.789Z,7.5
2023-04-28T05:37:25.707Z,7.7
2023-04-28T05:40:27.679Z,8.1
2023-04-28T05:43:29.629Z,7.4
2023-04-28T05:46:31.599Z,7.1
2023-04-28T05:49:33.577Z,8.2
2023-04-28T05:52:35.521Z,7.9
2023-04-28T05:55:37.495Z,8.1
2023-04-28T05:58:39.462Z,9.2
2023-04-28T06:01:41.447Z,8.5
2023-04-28T06:04:43.518Z,7.4
2023-04-28T06:07:45.436Z,9.4
2023-04-28T06:10:47.383Z,8.9
2023-04-28T06:13:49.340Z,10.1
2023-04-28T06:16:54.180Z,10.3
2023-04-28T06:19:56.172Z,10
2023-04-28T06:22:58.140Z,8.6
2023-04-28T06:26:00.107Z,9.5
2023-04-28T06:29:02.081Z,10
2023-04-28T06:32:04.228Z,9.8
2023-04-28T06:35:06.002Z,10.4
2023-04-28T06:38:07.972Z,9.6
2023-04-28T06:41:09.967Z,10.1
2023-04-28T06:44:11.879Z,11.3
2023-04-28T06:47:13.859Z,10.5
2023-04-28T06:50:15.793Z,10.9
2023-04-28T06:53:17.759Z,10.1
2023-04-28T06:56:19.746Z,8.6
2023-04-28T06:59:21.731Z,9.1
2023-04-28T07:02:23.805Z,9.3
2023-04-28T07:05:25.700Z,9.8
2023-04-28T07:08:27.694Z,10.1
2023-04-28T07:11:29.625Z,8.5
2023-04-28T07:14:31.580Z,9
2023-04-28T07:17:33.672Z,9.2
2023-04-28T07:20:35.522Z,8.3
2023-04-28T07:23:37.588Z,10.3
2023-04-28T07:26:40.045Z,9.6
2023-04-28T07:29:41.474Z,8.2
2023-04-28T07:32:43.412Z,10
2023-04-28T07:35:45.351Z,8.8
2023-04-28T07:38:47.303Z,10.8
2023-04-28T07:41:49.273Z,11.5
2023-04-28T07:44:51.232Z,10.4
2023-04-28T07:47:53.287Z,11.1
2023-04-28T07:50:55.180Z,10.9
2023-04-28T07:53:57.162Z,8.9
2023-04-28T07:56:59.109Z,8
2023-04-28T08:00:02.579Z,8.1
2023-04-28T08:03:03.141Z,9.9
2023-04-28T08:06:05.246Z,11.1
2023-04-28T08:09:07.014Z,10.5
2023-04-28T08:12:08.973Z,10.1
2023-04-28T08:15:10.902Z,9.6
2023-04-28T08:18:12.890Z,10.1
2023-04-28T08:21:14.842Z,9.7
2023-04-28T08:24:16.922Z,10.2
2023-04-28T08:27:18.736Z,12.4
2023-04-28T08:30:20.700Z,14.2
2023-04-28T08:33:22.651Z,11.8
2023-04-28T08:36:24.615Z,10.8
2023-04-28T08:39:26.560Z,8.6
2023-04-28T08:42:28.538Z,11.2
2023-04-28T08:45:30.501Z,15
2023-04-28T08:48:32.448Z,11.7
2023-04-28T08:51:34.434Z,11.9
2023-04-28T08:54:36.664Z,13.1
2023-04-28T08:57:39.411Z,14
2023-04-28T09:00:40.320Z,11.8
2023-04-28T09:03:42.381Z,15.2
2023-04-28T09:06:44.251Z,14.6
2023-04-28T09:09:46.193Z,13.2
2023-04-28T09:12:48.168Z,11
2023-04-28T09:15:50.117Z,15
2023-04-28T09:18:52.170Z,11.6
2023-04-28T09:21:54.124Z,13.9
2023-04-28T09:24:56.006Z,13.5
2023-04-28T09:27:57.993Z,12.9
2023-04-28T09:30:59.935Z,15.2
2023-04-28T09:34:01.901Z,16.9
2023-04-28T09:37:03.911Z,16.1
2023-04-28T09:40:05.830Z,16.6
2023-04-28T09:43:18.908Z,16.4
2023-04-28T09:46:09.783Z,12.8
2023-04-28T09:49:11.735Z,14.2
2023-04-28T09:52:13.732Z,11.7
2023-04-28T09:55:15.680Z,14
2023-04-28T09:58:17.642Z,14.4
2023-04-28T10:01:19.676Z,11.9
2023-04-28T10:04:21.626Z,17.5
2023-04-28T10:07:23.565Z,17.2
2023-04-28T10:10:25.517Z,11.9
2023-04-28T10:13:27.517Z,15.3
2023-04-28T10:16:29.562Z,14.7
2023-04-28T10:19:31.440Z,16.5
2023-04-28T10:22:33.415Z,14.5
2023-04-28T10:25:35.397Z,16.5
2023-04-28T10:28:37.357Z,15.7
2023-04-28T10:31:39.369Z,15
2023-04-28T10:34:41.274Z,15.7
2023-04-28T10:37:43.247Z,14.6
2023-04-28T10:40:45.275Z,16.8
2023-04-28T10:43:47.200Z,19.6
2023-04-28T10:46:49.240Z,16.6
2023-04-28T10:49:51.152Z,16.4
2023-04-28T10:52:53.095Z,19.8
2023-04-28T10:55:55.056Z,19.8
2023-04-28T10:58:57.005Z,16.4
2023-04-28T11:01:58.988Z,13.1
2023-04-28T11:05:00.991Z,17.5
2023-04-28T11:08:02.917Z,16.4
2023-04-28T11:11:04.883Z,16.7
2023-04-28T11:14:06.845Z,16.1
2023-04-28T11:17:08.810Z,18.5
2023-04-28T11:20:10.775Z,15.8
2023-04-28T11:23:12.737Z,14.5
2023-04-28T11:26:14.714Z,14.2
2023-04-28T11:29:16.682Z,14.3
2023-04-28T11:32:18.641Z,15.5
2023-04-28T11:35:20.656Z,15.5
2023-04-28T11:38:22.609Z,11.1
2023-04-28T11:41:24.618Z,13.7
2023-04-28T11:44:26.548Z,11.7
2023-04-28T11:47:28.521Z,10.6
2023-04-28T11:50:30.474Z,11.3
2023-04-28T11:53:32.445Z,11.8
2023-04-28T11:56:34.426Z,11.9
2023-04-28T11:59:36.893Z,10.4
2023-04-28T12:02:38.408Z,9.5
2023-04-28T12:05:40.314Z,10.1
2023-04-28T12:08:42.238Z,9.7
2023-04-28T12:11:44.215Z,8.5
2023-04-28T12:14:46.176Z,8.2
2023-04-28T12:17:48.172Z,7.2
2023-04-28T12:20:50.106Z,6.3
2023-04-28T12:23:52.047Z,6.9
2023-04-28T12:26:54.029Z,7
2023-04-28T12:29:56.010Z,5.8
2023-04-28T12:32:58.018Z,6.9
2023-04-28T12:35:59.948Z,6.1
2023-04-28T12:39:01.912Z,5.1
2023-04-28T12:42:03.905Z,4.3
2023-04-28T12:45:05.856Z,4.8
2023-04-28T12:48:07.855Z,3.5
2023-04-28T12:51:09.837Z,4.2
2023-04-28T12:54:11.807Z,3.9
2023-04-28T12:57:13.757Z,3.4
2023-04-28T13:00:15.732Z,3.8
2023-04-28T13:03:17.796Z,3.7
2023-04-28T13:06:19.661Z,3.3
2023-04-28T13:09:21.666Z,3.6
2023-04-28T13:12:23.602Z,3.1
2023-04-28T13:15:25.560Z,3.1
2023-04-28T13:18:27.509Z,3.1
2023-04-28T13:21:29.480Z,3
2023-04-28T13:24:31.445Z,3.7
2023-04-28T13:27:33.454Z,2.7
2023-04-28T13:30:35.461Z,2.3
2023-04-28T13:33:37.340Z,3.1
2023-04-28T13:36:39.608Z,2.7
2023-04-28T13:39:41.275Z,2.7
2023-04-28T13:42:43.227Z,4.1
2023-04-28T13:45:45.208Z,3.6
2023-04-28T13:48:47.156Z,3
2023-04-28T13:51:49.122Z,3.4
2023-04-28T13:54:51.050Z,2.8
2023-04-28T13:57:53.034Z,3.5
2023-04-28T14:03:57.079Z,3.5
2023-04-28T14:06:58.921Z,3
2023-04-28T14:10:00.877Z,3.2
2023-04-28T14:13:02.833Z,3.9
2023-04-28T14:16:04.833Z,4.2
2023-04-28T14:19:06.818Z,4.2
2023-04-28T14:22:08.801Z,4.7
2023-04-28T14:25:10.742Z,4.3
2023-04-28T14:28:12.700Z,4.3
2023-04-28T14:31:14.729Z,4.1
2023-04-28T14:34:16.712Z,4.4
2023-04-28T14:37:18.659Z,4.1
2023-04-28T14:40:20.615Z,3.4
2023-04-28T14:43:22.572Z,2.7
2023-04-28T14:46:24.587Z,2.7
2023-04-28T14:49:26.486Z,3.2
2023-04-28T14:52:28.495Z,2.6
2023-04-28T14:55:30.424Z,2.6
2023-04-28T14:58:32.411Z,2.7
2023-04-28T15:01:34.453Z,2.7
2023-04-28T15:04:36.456Z,2
2023-04-28T15:07:38.361Z,3.1
2023-04-28T15:10:40.432Z,2.3
2023-04-28T15:13:43.146Z,2.3
2023-04-28T15:16:44.335Z,2
2023-04-28T15:19:46.390Z,2.1
2023-04-28T15:22:48.300Z,1.8
2023-04-28T15:25:50.247Z,2.1
2023-04-28T15:28:52.225Z,1.9
2023-04-28T15:31:54.238Z,1.8
2023-04-28T15:34:56.311Z,1.6
2023-04-28T15:37:58.271Z,1.6
2023-04-28T15:41:00.248Z,1.4
2023-04-28T15:44:02.214Z,1.5
2023-04-28T15:47:04.166Z,1.5
2023-04-28T15:50:06.140Z,1.6
2023-04-28T15:53:08.143Z,1.3
2023-04-28T15:56:10.139Z,1.4
2023-04-28T15:59:12.151Z,2
2023-04-28T16:02:14.167Z,2.5
2023-04-28T16:05:16.108Z,2.1
2023-04-28T16:08:18.052Z,1.8
2023-04-28T16:11:20.028Z,1.8
2023-04-28T16:14:22.018Z,2.2
2023-04-28T16:17:23.994Z,2.3
2023-04-28T16:20:25.889Z,1.9
2023-04-28T16:23:27.854Z,2.1
2023-04-28T16:26:29.818Z,2.3
2023-04-28T16:29:31.773Z,2.3
2023-04-28T16:32:33.815Z,2.5
2023-04-28T16:35:35.758Z,2.2
2023-04-28T16:38:37.702Z,2.1
2023-04-28T16:41:39.771Z,2.7
2023-04-28T16:44:41.657Z,2
2023-04-28T16:47:44.072Z,2
2023-04-28T16:50:45.555Z,1.7
2023-04-28T16:53:47.557Z,1.9
2023-04-28T16:56:49.524Z,1.7
2023-04-28T16:59:51.646Z,1.7
2023-04-28T17:02:53.608Z,2.1
2023-04-28T17:05:55.458Z,1.9
2023-04-28T17:08:57.409Z,1.6
2023-04-28T17:11:59.371Z,1.7
2023-04-28T17:15:01.359Z,1.9
2023-04-28T17:18:03.329Z,1.8
2023-04-28T17:21:05.282Z,1.7
2023-04-28T17:24:07.263Z,1.6
2023-04-28T17:27:09.365Z,1.4
2023-04-28T17:30:11.342Z,1.5
2023-04-28T17:33:13.309Z,1.4
2023-04-28T17:36:15.245Z,1.4
2023-04-28T17:39:17.222Z,1.3
2023-04-28T17:42:19.196Z,1.5
2023-04-28T17:45:21.157Z,1.3
2023-04-28T17:48:23.105Z,1.6
2023-04-28T17:51:25.083Z,1.7
2023-04-28T17:54:27.064Z,1.4
2023-04-28T17:57:29.082Z,1.6
2023-04-28T18:00:31.094Z,1.8
2023-04-28T18:03:33.130Z,1.5
2023-04-28T18:06:35.066Z,1.8
2023-04-28T18:09:37.206Z,1.5
2023-04-28T18:12:39.162Z,1.8
2023-04-28T18:15:41.103Z,1.7
2023-04-28T18:18:43.077Z,1.8
2023-04-28T18:21:45.021Z,1.8
2023-04-28T18:24:46.996Z,1.5
2023-04-28T18:27:49.026Z,2
2023-04-28T18:30:50.950Z,2
2023-04-28T18:33:52.911Z,1.9
2023-04-28T18:36:54.889Z,1.7
2023-04-28T18:39:56.858Z,2.1
2023-04-28T18:42:58.806Z,2
2023-04-28T18:46:00.770Z,2.2
2023-04-28T18:49:02.726Z,2
2023-04-28T18:52:04.695Z,1.5
2023-04-28T18:55:06.670Z,2.1
2023-04-28T18:58:08.699Z,2.1
2023-04-28T19:01:10.722Z,2.2
2023-04-28T19:04:12.769Z,2
2023-04-28T19:07:14.614Z,2.4
2023-04-28T19:10:16.576Z,3
2023-04-28T19:13:18.564Z,2.2
2023-04-28T19:16:20.540Z,2.6
2023-04-28T19:19:22.539Z,2.7
2023-04-28T19:22:24.481Z,2.7
2023-04-28T19:25:26.527Z,3
2023-04-28T19:28:28.453Z,3
2023-04-28T19:31:30.460Z,2.9
2023-04-28T19:34:32.373Z,3.2
2023-04-28T19:37:34.323Z,2.8
2023-04-28T19:40:36.277Z,2.7
2023-04-28T19:43:38.274Z,3.2
2023-04-28T19:46:40.299Z,2.5
2023-04-28T19:49:45.057Z,2.2
2023-04-28T19:52:47.090Z,2.3
2023-04-28T19:55:49.083Z,1.8
2023-04-28T19:58:51.037Z,1.9
2023-04-28T20:01:53.064Z,1.8
2023-04-28T20:04:54.963Z,2.2
2023-04-28T20:07:56.965Z,1.9
2023-04-28T20:10:58.889Z,2
2023-04-28T20:14:00.841Z,2.3
2023-04-28T20:17:02.823Z,3.4
2023-04-28T20:20:04.786Z,2.6
2023-04-28T20:23:06.772Z,2.4
2023-04-28T20:26:08.752Z,2.8
2023-04-28T20:29:10.751Z,3.3
2023-04-28T20:32:12.719Z,2.8
2023-04-28T20:35:14.681Z,2.4
2023-04-28T20:38:16.635Z,2.5
2023-04-28T20:41:18.606Z,2.9
2023-04-28T20:44:22.083Z,3.2
2023-04-28T20:47:22.528Z,3.7
2023-04-28T20:50:24.618Z,4.2
2023-04-28T20:53:26.485Z,3.8
2023-04-28T20:56:28.489Z,3.9
2023-04-28T20:59:32.404Z,5.4
2023-04-28T21:02:32.617Z,4.9
2023-04-28T21:05:34.522Z,5.5
2023-04-28T21:08:36.459Z,5
2023-04-28T21:11:38.423Z,5.2
2023-04-28T21:14:40.381Z,4
2023-04-28T21:17:42.365Z,4
2023-04-28T21:20:44.358Z,3.6
2023-04-28T21:23:46.283Z,2.9
2023-04-28T21:26:48.280Z,2.1
2023-04-28T21:29:50.428Z,2
2023-04-28T21:32:52.219Z,1.9
2023-04-28T21:35:54.166Z,1.8
2023-04-28T21:38:56.157Z,1.9
2023-04-28T21:41:58.090Z,1.9
2023-04-28T21:45:00.069Z,1.6
2023-04-28T21:48:02.046Z,1.7
2023-04-28T21:51:03.973Z,1.8
2023-04-28T21:54:06.402Z,1.8
2023-04-28T21:57:08.060Z,1.7
2023-04-28T22:00:10.043Z,1.8
2023-04-28T22:03:12.070Z,1.7
2023-04-28T22:06:13.969Z,2
2023-04-28T22:09:15.944Z,1.9
2023-04-28T22:12:17.877Z,2
2023-04-28T22:15:19.923Z,1.6
2023-04-28T22:18:21.877Z,1.7
2023-04-28T22:21:23.844Z,2.1
2023-04-28T22:24:25.828Z,1.8
2023-04-28T22:27:27.849Z,1.8
2023-04-28T22:30:29.838Z,2.5
2023-04-28T22:33:31.764Z,2.2
2023-04-28T22:36:33.731Z,2
2023-04-28T22:39:35.700Z,2.3
2023-04-28T22:42:37.763Z,2.2
2023-04-28T22:45:39.766Z,2.4
2023-04-28T22:48:41.709Z,2.6
2023-04-28T22:51:43.707Z,2.5
2023-04-28T22:54:45.616Z,2.5
2023-04-28T22:57:47.606Z,2.3
2023-04-28T23:00:49.594Z,2.8
2023-04-28T23:03:51.662Z,2.2
2023-04-28T23:06:53.529Z,2.2
2023-04-28T23:09:55.494Z,2.3
2023-04-28T23:12:57.489Z,2.5
2023-04-28T23:15:59.497Z,3
2023-04-28T23:19:01.386Z,3
2023-04-28T23:22:03.351Z,2.4
2023-04-28T23:25:05.308Z,2.3
2023-04-28T23:28:07.264Z,2.5
2023-04-28T23:31:09.238Z,2.6
2023-04-28T23:34:11.187Z,2.3
2023-04-28T23:37:13.185Z,2.6
2023-04-28T23:40:15.149Z,2.1
2023-04-28T23:43:17.096Z,2.5
2023-04-28T23:46:19.086Z,2.2
2023-04-28T23:49:21.031Z,2.3
2023-04-28T23:52:23.022Z,2.3
2023-04-28T23:55:24.954Z,2.7
2023-04-28T23:58:26.914Z,2
